VA7RO Saanichton CA current weather conditions

sailwx.info

Wind from 248 at 2 knots gusting 3

Air temperature 11.1° C
Dewpoint 6.8° C

Last reported at 2019-Jun-19 11:59 UTC.
Time now 2019-Jun-19 12:45 UTC

Location: N 48°34' W 123°23'.
View on Google Maps.

See reports from other nearby stations

  
Tides and Currents Weather Stations Pressure Air Temp Water Temp Dewpoint Dewpoint Depression Visibility Wind Speed Wind Dir Waves Ship Positions
date/time (UTC)wind fromknots sea level pressurealtimeterstation pressurevisibilityair tempwater tempwave heightnotes
2019-Jun-19 11:59 248 2 gusting 3 11.1
2019-Jun-19 11:44 237 2 gusting 6 11.7
2019-Jun-19 11:29 247 4 gusting 6 11.7
2019-Jun-19 11:15 255 4 gusting 6 11.7
2019-Jun-19 11:00 243 3 gusting 5 11.7
2019-Jun-19 10:44 244 4 gusting 5 11.7
2019-Jun-19 10:29 291 4 gusting 6 11.7
2019-Jun-19 10:14 253 3 gusting 4 11.7
2019-Jun-19 09:58 241 1 gusting 3 11.7
2019-Jun-19 09:45 271 1 gusting 4 12.2
2019-Jun-19 09:29 252 5 gusting 7 12.8
2019-Jun-19 09:15 284 3 gusting 5 12.8
2019-Jun-19 09:00 258 1 gusting 3 12.8
2019-Jun-19 08:45 237 4 gusting 7 12.8
2019-Jun-19 08:29 252 2 gusting 3 12.8
2019-Jun-19 08:14 250 6 gusting 12 13.3
2019-Jun-19 08:00 248 4 gusting 9 13.3
2019-Jun-19 07:44 274 3 gusting 6 13.9
2019-Jun-19 07:30 254 4 gusting 8 14.4
2019-Jun-19 07:14 288 4 gusting 9 14.4
2019-Jun-19 07:00 234 6 gusting 10 14.4
2019-Jun-19 06:45 257 4 gusting 6 14.4
2019-Jun-19 06:29 260 4 gusting 11 14.4
2019-Jun-19 06:15 249 5 gusting 6 13.9
2019-Jun-19 05:59 250 2 gusting 6 14.4
2019-Jun-19 05:44 254 6 gusting 10 15.0
2019-Jun-19 05:29 277 6 gusting 11 15.0
2019-Jun-19 05:14 237 6 gusting 9 13.9
2019-Jun-19 05:00 238 1 gusting 5 15.0
2019-Jun-19 04:44 259 6 gusting 8 15.6
2019-Jun-19 04:30 268 3 gusting 6 16.1
2019-Jun-19 04:14 240 6 gusting 12 16.7
2019-Jun-19 03:59 200 4 gusting 6 17.2
2019-Jun-19 03:44 282 4 gusting 6 17.8
2019-Jun-19 03:29 247 3 gusting 9 18.9
2019-Jun-19 03:15 265 6 gusting 12 19.4
2019-Jun-19 02:59 267 6 gusting 10 19.4
2019-Jun-19 02:44 248 7 gusting 14 20.0
2019-Jun-19 02:29 264 9 gusting 13 20.0
2019-Jun-19 02:14 292 9 gusting 14 20.6
2019-Jun-19 01:59 261 7 gusting 13 21.1
2019-Jun-19 01:45 254 6 gusting 11 21.7
2019-Jun-19 01:29 035 4 gusting 5 18.9
2019-Jun-19 01:14 098 6 gusting 7 18.9
2019-Jun-19 01:00 080 1 gusting 4 19.4
2019-Jun-19 00:44 027 2 gusting 5 21.7
2019-Jun-19 00:29 220 4 gusting 10 21.7
2019-Jun-19 00:15 240 7 gusting 11 22.2
2019-Jun-18 23:59 306 7 gusting 10 22.8
2019-Jun-18 23:44 294 6 gusting 14 22.2
2019-Jun-18 23:30 256 11 gusting 18 21.7
2019-Jun-18 23:14 175 6 gusting 11 22.2
2019-Jun-18 22:59 165 6 gusting 10 21.7
2019-Jun-18 22:44 099 7 gusting 9 20.6
2019-Jun-18 22:29 111 6 gusting 12 20.6
2019-Jun-18 22:15 089 6 gusting 8 19.4
2019-Jun-18 21:59 110 6 gusting 11 19.4
2019-Jun-18 21:44 101 6 gusting 9 19.4
2019-Jun-18 21:14 104 8 gusting 12 18.9
2019-Jun-18 20:59 102 7 gusting 12 18.3
2019-Jun-18 20:44 122 8 gusting 13 18.3
2019-Jun-18 20:29 102 8 gusting 13 18.3
2019-Jun-18 20:16 098 10 gusting 13 17.8
2019-Jun-18 20:00 121 10 gusting 13 18.9
2019-Jun-18 19:45 101 8 gusting 12 18.9
2019-Jun-18 19:30 115 8 gusting 12 18.9
2019-Jun-18 19:14 116 6 gusting 11 19.4
2019-Jun-18 18:59 115 7 gusting 10 19.4
2019-Jun-18 18:44 134 7 gusting 10 19.4
2019-Jun-18 18:31 120 7 gusting 11 19.4
2019-Jun-18 18:15 103 6 gusting 6 19.4
2019-Jun-18 17:59 200 3 gusting 6 20.0
2019-Jun-18 17:45 153 1 gusting 6 18.9
2019-Jun-18 17:30 128 3 gusting 4 18.9
2019-Jun-18 17:14 209 1 gusting 6 18.9
2019-Jun-18 17:00 160 1 gusting 4 18.9
2019-Jun-18 16:44 183 2 gusting 6 18.3
2019-Jun-18 16:30 231 19.4
2019-Jun-18 16:14 232 1 gusting 3 18.9
2019-Jun-18 15:59 220 18.3
2019-Jun-18 15:44 178 0 gusting 5 17.8
2019-Jun-18 15:29 238 0 gusting 4 17.8
2019-Jun-18 15:14 288 1 gusting 4 17.2
2019-Jun-18 14:59 295 0 gusting 2 17.2
2019-Jun-18 14:45 296 0 gusting 3 17.2
2019-Jun-18 14:29 274 0 gusting 4 16.7
2019-Jun-18 14:15 311 0 gusting 3 16.1
2019-Jun-18 13:59 314 0 gusting 1 15.0
2019-Jun-18 13:45 314 15.0
2019-Jun-18 13:29 314 14.4
2019-Jun-18 13:15 314 14.4
2019-Jun-18 12:59 314 14.4
2019-Jun-18 12:45 314 13.9
2019-Jun-18 12:30 314 13.9
2019-Jun-18 12:14 314 13.3
2019-Jun-18 11:59 314 13.3
2019-Jun-18 11:46 314 13.3
2019-Jun-18 11:30 314 13.3
2019-Jun-18 11:15 314 13.3
2019-Jun-18 11:00 314 13.9
2019-Jun-18 10:44 314 13.9
2019-Jun-18 10:29 314 14.4
2019-Jun-18 10:14 314 14.4
2019-Jun-18 09:59 314 15.0
2019-Jun-18 09:44 314 0 gusting 6 15.0
2019-Jun-18 09:29 238 15.6
2019-Jun-18 09:14 232 0 gusting 4 15.6
2019-Jun-18 08:59 255 16.1
2019-Jun-18 08:44 259 2 gusting 4 16.7
2019-Jun-18 08:29 288 17.2
2019-Jun-18 08:14 288 0 gusting 3 17.2
2019-Jun-18 07:59 306 0 gusting 5 17.8
2019-Jun-18 07:45 305 1 gusting 5 17.8
2019-Jun-18 07:29 273 0 gusting 3 18.3
2019-Jun-18 07:15 276 2 gusting 5 18.3
2019-Jun-18 07:00 292 18.9
2019-Jun-18 06:43 325 2 gusting 6 18.9
2019-Jun-18 06:29 302 1 gusting 10 19.4
2019-Jun-18 06:15 332 1 gusting 6 19.4
2019-Jun-18 05:58 011 1 gusting 6 19.4
2019-Jun-18 05:43 281 0 gusting 7 20.0
2019-Jun-18 05:28 333 20.0
2019-Jun-18 05:14 302 3 gusting 7 20.6
2019-Jun-18 05:00 308 2 gusting 6 21.1
2019-Jun-18 04:43 317 1 gusting 9 21.7
2019-Jun-18 04:28 334 4 gusting 9 21.7
2019-Jun-18 04:13 315 4 gusting 14 21.7
2019-Jun-18 03:58 322 5 gusting 13 22.2
2019-Jun-18 03:44 313 5 gusting 11 22.2
2019-Jun-18 03:30 306 2 gusting 6 22.8
2019-Jun-18 03:15 290 2 gusting 6 23.3
2019-Jun-18 02:59 306 1 gusting 5 23.9
2019-Jun-18 02:45 292 1 gusting 3 23.9
2019-Jun-18 02:29 327 0 gusting 4 23.9
2019-Jun-18 02:14 194 0 gusting 5 22.8
2019-Jun-18 02:00 081 22.8
2019-Jun-18 01:44 081 0 gusting 2 22.8
2019-Jun-18 01:30 068 0 gusting 3 23.3
2019-Jun-18 01:15 068 23.3
2019-Jun-18 00:59 126 23.9
2019-Jun-18 00:45 127 23.9
2019-Jun-18 00:30 126 23.3
2019-Jun-18 00:13 103 22.8
2019-Jun-17 23:58 103 1 gusting 5 22.8
2019-Jun-17 23:43 073 1 gusting 5 21.7
2019-Jun-17 23:30 048 2 gusting 6 21.1
2019-Jun-17 23:14 097 3 gusting 6 20.6
2019-Jun-17 23:00 084 1 gusting 6 21.1
2019-Jun-17 22:44 094 3 gusting 6 21.7
2019-Jun-17 22:30 096 2 gusting 6 20.6
2019-Jun-17 22:13 109 2 gusting 6 20.0
2019-Jun-17 22:00 153 4 gusting 7 19.4
2019-Jun-17 21:44 123 4 gusting 8 18.9
2019-Jun-17 21:30 186 5 gusting 9 18.3
2019-Jun-17 21:14 119 4 gusting 7 18.3
2019-Jun-17 20:59 119 5 gusting 7 17.8
2019-Jun-17 20:45 132 4 gusting 8 17.8
2019-Jun-17 20:30 092 5 gusting 10 17.8
2019-Jun-17 20:14 103 6 gusting 12 17.8
2019-Jun-17 20:00 162 4 gusting 9 17.8
2019-Jun-17 19:45 158 4 gusting 8 18.3
2019-Jun-17 19:30 167 5 gusting 10 18.3
2019-Jun-17 19:14 100 6 gusting 11 18.9
2019-Jun-17 19:00 157 3 gusting 7 19.4
2019-Jun-17 18:44 150 5 gusting 8 19.4
2019-Jun-17 18:29 058 3 gusting 7 20.0